weather.gov     
National Weather Service

Terminal Aerodrome Forecast
NWS Homepage
This page is being discontinued on March 12, 2014.
The same data is available at this site. Please update your bookmarks.
Thank you, and we apologize for the inconvenience.
Please send an email to SR-SRH.Webmaster@noaa.gov with any concerns.


Current Version
Previous Version:    01  02  03  04  05  06  07  08  09  10  11  12  13  14  15  16  17  18  19  20  21  22  23  
[Printable]
884
FTUS44 KMEG 230528
TAFMKL
TAF
KMKL 230528Z 2306/2406 17005KT P6SM SCT060 OVC250
     FM230800 16007KT P6SM BKN040 OVC120
     FM231200 14007KT P6SM VCSH OVC015
     FM231400 11009KT 3SM -RA BR VCTS BKN005 OVC009CB
     FM240300 19012G20KT 6SM BR VCSH BKN005 BKN025=




884
FTUS44 KMEG 230528
TAFMKL
TAF
KMKL 230528Z 2306/2406 17005KT P6SM SCT060 OVC250
     FM230800 16007KT P6SM BKN040 OVC120
     FM231200 14007KT P6SM VCSH OVC015
     FM231400 11009KT 3SM -RA BR VCTS BKN005 OVC009CB
     FM240300 19012G20KT 6SM BR VCSH BKN005 BKN025=


U.S. Dept. of Commerce
NOAA National Weather Service
1325 East West Highway
Silver Spring, MD 20910
E-mail: w-nws.webmaster@noaa.gov
Page last modified: May 16, 2007
NATIONAL WEATHER SERVICE: for Safety, for Work, for Fun - FOR LIFE